Minocqua, Wisconsin
Current Conditions -  °F | °C
As of 4:55 PM on Sunday 21 Dec 2014 (Local Time) from KARV Reporting Station
Light Snow Light Snow  
Wind Chill: 26°   Ceiling: 900
Heat Index: 34°   Visibility: 3mi
Dew Point: 32°   Wind: 10mph
Humidity: 93%   Direction: 160°SSE
Pressure: 29.84"   Gusts: NA
Location:  45.93°N, 89.73°W
Report Text: KARV 212255Z AUTO 16009KT 3SM -SN BKN009 OVC012 01/00 A2984 RMK AO2 T00110001
Loading
Personal Weather Stations






























Interactive Weather Map New forecast layout! Learn more

10-Day Weather Forecast

Advertisements
Track Severe Weather on mobile